createdAt,value
2023-01-17T00:02:00.726Z,10.50
2023-01-17T00:07:22.348Z,13.40
2023-01-17T00:12:28.974Z,18.70
2023-01-17T00:17:31.363Z,12.80
2023-01-17T00:22:52.739Z,12.80
2023-01-17T00:27:55.184Z,9.70
2023-01-17T00:32:58.030Z,10.10
2023-01-17T00:38:01.792Z,11.20
2023-01-17T00:43:24.968Z,11.80
2023-01-17T00:48:47.310Z,12.10
2023-01-17T00:54:11.980Z,11.10
2023-01-17T00:59:34.272Z,9.90
2023-01-17T01:04:55.813Z,13.10
2023-01-17T01:10:17.133Z,10.00
2023-01-17T01:15:39.525Z,12.50
2023-01-17T01:21:02.479Z,12.10
2023-01-17T01:26:24.680Z,11.70
2023-01-17T01:31:46.441Z,11.00
2023-01-17T01:36:49.906Z,11.60
2023-01-17T01:41:53.026Z,9.90
2023-01-17T01:46:56.303Z,13.00
2023-01-17T01:52:03.663Z,12.30
2023-01-17T01:57:12.303Z,14.60
2023-01-17T02:02:15.573Z,10.70
2023-01-17T02:07:51.372Z,13.90
2023-01-17T02:12:55.904Z,11.80
2023-01-17T02:18:19.855Z,11.40
2023-01-17T02:23:32.324Z,13.40
2023-01-17T02:28:40.319Z,13.00
2023-01-17T02:34:01.009Z,11.60
2023-01-17T02:39:19.214Z,12.40
2023-01-17T02:44:22.436Z,9.90
2023-01-17T02:49:28.490Z,14.50
2023-01-17T02:54:52.404Z,11.90
2023-01-17T03:00:27.485Z,14.80
2023-01-17T03:05:47.061Z,12.30
2023-01-17T03:10:50.963Z,15.80
2023-01-17T03:15:53.954Z,12.90
2023-01-17T03:20:56.987Z,11.70
2023-01-17T03:26:00.407Z,12.70
2023-01-17T03:31:02.698Z,12.10
2023-01-17T03:36:05.334Z,11.30
2023-01-17T03:41:09.362Z,15.00
2023-01-17T03:46:24.049Z,12.60
2023-01-17T03:51:28.823Z,11.10
2023-01-17T03:56:32.906Z,11.90
2023-01-17T04:01:36.105Z,11.50
2023-01-17T04:06:39.888Z,10.00
2023-01-17T04:11:44.012Z,8.80
2023-01-17T04:16:51.669Z,12.00
2023-01-17T04:21:55.088Z,8.00
2023-01-17T04:26:58.549Z,10.70
2023-01-17T04:32:01.711Z,10.50
2023-01-17T04:37:04.977Z,12.00
2023-01-17T04:42:07.605Z,12.40
2023-01-17T04:47:10.439Z,8.10
2023-01-17T04:52:15.459Z,9.80
2023-01-17T04:57:19.598Z,8.70
2023-01-17T05:02:22.664Z,8.00
2023-01-17T05:07:24.865Z,8.80
2023-01-17T05:12:29.347Z,9.10
2023-01-17T05:17:33.440Z,10.00
2023-01-17T05:22:36.641Z,9.10
2023-01-17T05:27:38.848Z,8.40
2023-01-17T05:32:41.966Z,8.20
2023-01-17T05:37:48.918Z,6.60
2023-01-17T05:42:55.433Z,7.10
2023-01-17T05:47:59.221Z,7.70
2023-01-17T05:53:08.527Z,7.10
2023-01-17T05:58:18.408Z,6.50
2023-01-17T06:03:21.330Z,6.30
2023-01-17T06:08:24.241Z,6.50
2023-01-17T06:13:28.457Z,5.50
2023-01-17T06:18:31.694Z,7.50
2023-01-17T06:23:34.365Z,6.00
2023-01-17T06:28:36.716Z,4.50
2023-01-17T06:33:40.054Z,4.30
2023-01-17T06:38:43.435Z,5.00
2023-01-17T06:43:48.855Z,5.10
2023-01-17T06:48:52.738Z,5.70
2023-01-17T06:53:55.593Z,6.60
2023-01-17T06:58:58.892Z,6.00
2023-01-17T07:04:04.169Z,7.50
2023-01-17T07:09:07.949Z,6.00
2023-01-17T07:14:14.065Z,5.80
2023-01-17T07:19:16.667Z,6.50
2023-01-17T07:24:20.321Z,6.70
2023-01-17T07:29:23.641Z,6.60
2023-01-17T07:34:29.284Z,6.20
2023-01-17T07:39:33.119Z,5.90
2023-01-17T07:44:37.159Z,6.10
2023-01-17T07:49:40.656Z,5.30
2023-01-17T07:54:43.877Z,5.60
2023-01-17T07:59:46.030Z,5.70
2023-01-17T08:04:49.201Z,5.60
2023-01-17T08:09:51.563Z,6.20
2023-01-17T08:14:53.620Z,5.40
2023-01-17T08:19:57.105Z,5.60
2023-01-17T08:25:00.614Z,6.20
2023-01-17T08:30:04.555Z,7.00
2023-01-17T08:35:08.725Z,6.50
2023-01-17T08:40:12.185Z,5.60
2023-01-17T08:45:14.643Z,5.90
2023-01-17T08:50:21.022Z,5.90
2023-01-17T08:55:23.453Z,6.90
2023-01-17T09:00:26.555Z,6.40
2023-01-17T09:05:28.318Z,5.00
2023-01-17T09:10:30.616Z,6.50
2023-01-17T09:15:32.505Z,7.10
2023-01-17T09:20:34.414Z,4.00
2023-01-17T09:25:37.133Z,6.40
2023-01-17T09:30:39.370Z,6.40
2023-01-17T09:35:42.669Z,6.70
2023-01-17T09:40:48.666Z,6.10
2023-01-17T09:45:51.642Z,4.90
2023-01-17T09:51:04.323Z,5.00
2023-01-17T09:56:13.305Z,5.40
2023-01-17T10:01:19.423Z,5.00
2023-01-17T10:06:41.882Z,4.80
2023-01-17T10:11:52.801Z,6.20
2023-01-17T10:17:29.186Z,4.60
2023-01-17T10:23:01.726Z,6.50
2023-01-17T10:28:12.626Z,6.50
2023-01-17T10:33:32.010Z,5.70
2023-01-17T10:38:44.024Z,5.60
2023-01-17T10:44:14.036Z,6.40
2023-01-17T10:49:21.711Z,5.80
2023-01-17T10:54:42.552Z,6.50
2023-01-17T10:59:45.733Z,5.10
2023-01-17T11:04:55.344Z,5.80
2023-01-17T11:10:00.040Z,5.50
2023-01-17T11:15:08.982Z,4.60
2023-01-17T11:20:17.300Z,5.10
2023-01-17T11:25:27.596Z,5.40
2023-01-17T11:30:30.330Z,4.90
2023-01-17T11:35:43.802Z,4.90
2023-01-17T11:40:49.075Z,5.20
2023-01-17T11:46:19.205Z,5.30
2023-01-17T11:51:35.528Z,4.30
2023-01-17T11:56:45.575Z,4.40
2023-01-17T12:02:10.533Z,4.10
2023-01-17T12:07:28.043Z,4.30
2023-01-17T12:13:05.716Z,4.00
2023-01-17T12:18:27.085Z,3.70
2023-01-17T12:24:00.905Z,4.10
2023-01-17T12:29:21.464Z,3.40
2023-01-17T12:34:40.392Z,3.90
2023-01-17T12:39:53.038Z,4.00
2023-01-17T12:45:10.041Z,3.70
2023-01-17T12:50:26.717Z,4.00
2023-01-17T12:55:31.977Z,3.90
2023-01-17T13:00:38.642Z,4.80
2023-01-17T13:05:45.811Z,4.20
2023-01-17T13:16:27.754Z,3.10
2023-01-17T13:21:37.230Z,4.30
2023-01-17T13:26:55.220Z,3.80
2023-01-17T13:32:26.378Z,3.10
2023-01-17T13:37:53.455Z,3.60
2023-01-17T13:42:59.787Z,3.00
2023-01-17T13:48:23.204Z,3.10
2023-01-17T13:53:35.784Z,3.50
2023-01-17T13:58:54.999Z,3.20
2023-01-17T14:03:58.802Z,2.70
2023-01-17T14:09:27.151Z,3.40
2023-01-17T14:14:45.571Z,3.80
2023-01-17T14:19:55.697Z,3.30
2023-01-17T14:25:17.391Z,2.80
2023-01-17T14:30:25.138Z,3.00
2023-01-17T14:35:48.607Z,2.90
2023-01-17T14:41:08.566Z,2.60
2023-01-17T14:46:28.602Z,2.50
2023-01-17T14:51:35.250Z,2.90
2023-01-17T14:56:38.803Z,2.40
2023-01-17T15:01:42.046Z,2.40
2023-01-17T15:06:48.113Z,8.40
2023-01-17T15:11:52.511Z,3.50
2023-01-17T15:16:55.040Z,3.50
2023-01-17T15:21:57.980Z,6.70
2023-01-17T15:27:05.864Z,3.00
2023-01-17T15:32:19.914Z,3.30
2023-01-17T15:37:32.342Z,3.70
2023-01-17T15:42:39.057Z,4.40
2023-01-17T15:47:43.980Z,3.70
2023-01-17T15:52:53.714Z,3.60
2023-01-17T15:57:57.743Z,3.90
2023-01-17T16:03:01.450Z,3.70
2023-01-17T16:08:04.438Z,3.00
2023-01-17T16:13:09.389Z,4.00
2023-01-17T16:18:19.348Z,4.50
2023-01-17T16:23:22.526Z,3.70
2023-01-17T16:28:26.091Z,3.40
2023-01-17T16:33:28.548Z,4.40
2023-01-17T16:38:32.254Z,4.70
2023-01-17T16:43:34.913Z,4.30
2023-01-17T16:48:38.050Z,4.10
2023-01-17T16:53:41.549Z,6.00
2023-01-17T16:58:44.382Z,9.60
2023-01-17T17:03:49.571Z,7.20
2023-01-17T17:08:52.276Z,8.40
2023-01-17T17:13:57.695Z,15.50
2023-01-17T17:19:07.381Z,8.50
2023-01-17T17:24:12.930Z,12.20
2023-01-17T17:29:16.180Z,12.30
2023-01-17T17:34:18.905Z,10.30
2023-01-17T17:39:21.659Z,14.20
2023-01-17T17:44:24.443Z,20.30
2023-01-17T17:49:27.824Z,11.10
2023-01-17T17:54:32.699Z,11.60
2023-01-17T17:59:34.998Z,11.30
2023-01-17T18:04:37.515Z,8.90
2023-01-17T18:09:39.909Z,11.00
2023-01-17T18:14:42.187Z,11.20
2023-01-17T18:19:45.986Z,12.30
2023-01-17T18:24:50.433Z,14.30
2023-01-17T18:29:53.446Z,15.40
2023-01-17T18:34:58.145Z,11.70
2023-01-17T18:40:02.911Z,14.00
2023-01-17T18:45:08.536Z,15.10
2023-01-17T18:50:11.032Z,13.70
2023-01-17T18:55:13.248Z,14.00
2023-01-17T19:00:17.539Z,12.00
2023-01-17T19:05:21.323Z,13.60
2023-01-17T19:10:26.218Z,12.90
2023-01-17T19:15:32.988Z,12.50
2023-01-17T19:20:36.486Z,14.60
2023-01-17T19:25:39.787Z,19.90
2023-01-17T19:30:42.602Z,23.80
2023-01-17T19:35:45.646Z,23.50
2023-01-17T19:40:50.422Z,22.60
2023-01-17T19:46:00.208Z,17.70
2023-01-17T19:51:11.559Z,17.10
2023-01-17T19:56:24.395Z,15.40
2023-01-17T20:01:35.443Z,16.80
2023-01-17T20:06:41.457Z,18.10
2023-01-17T20:11:50.628Z,18.00
2023-01-17T20:16:56.920Z,19.30
2023-01-17T20:22:04.358Z,26.60
2023-01-17T20:27:15.982Z,26.40
2023-01-17T20:32:28.036Z,21.20
2023-01-17T20:37:36.997Z,31.70
2023-01-17T20:42:41.952Z,31.30
2023-01-17T20:47:47.478Z,25.40
2023-01-17T20:52:51.428Z,20.10
2023-01-17T20:57:55.062Z,17.40
2023-01-17T21:02:58.514Z,14.80
2023-01-17T21:08:04.158Z,16.00
2023-01-17T21:13:07.414Z,22.10
2023-01-17T21:18:10.119Z,23.40
2023-01-17T21:23:17.792Z,23.00
2023-01-17T21:28:21.573Z,19.80
2023-01-17T21:33:26.743Z,24.70
2023-01-17T21:38:31.285Z,20.50
2023-01-17T21:43:35.061Z,21.20
2023-01-17T21:48:41.029Z,23.50
2023-01-17T21:53:44.281Z,24.10
2023-01-17T21:58:53.831Z,22.90
2023-01-17T22:04:02.941Z,31.10
2023-01-17T22:09:07.142Z,32.50
2023-01-17T22:14:10.484Z,25.60
2023-01-17T22:19:12.951Z,36.60
2023-01-17T22:24:17.744Z,39.50
2023-01-17T22:29:21.515Z,38.70
2023-01-17T22:34:26.876Z,37.80
2023-01-17T22:39:29.974Z,37.40
2023-01-17T22:44:32.884Z,40.80
2023-01-17T22:49:35.305Z,38.30
2023-01-17T22:54:37.892Z,49.70
2023-01-17T22:59:40.279Z,55.80
2023-01-17T23:04:43.035Z,55.80
2023-01-17T23:09:45.981Z,56.50
2023-01-17T23:15:08.234Z,48.90
2023-01-17T23:20:12.093Z,60.80
2023-01-17T23:25:15.669Z,51.70
2023-01-17T23:30:50.868Z,46.80
2023-01-17T23:35:53.752Z,39.40
2023-01-17T23:41:26.781Z,42.70
2023-01-17T23:46:30.191Z,43.10
2023-01-17T23:51:33.144Z,36.00
2023-01-17T23:56:35.757Z,37.20
